Terminal Aerodrome Forecast
Issued by NWS Cleveland, OH

Home | Current Version | Previous Version | Graphics & Text | Print | Product List | Glossary Off
Versions: 1 2 3 4 5 6 7 8 9 10 11 12 13 14

000
FTUS41 KCLE 160529
TAFERI
TAF
KERI 160529Z 1606/1706 VRB03KT P6SM FEW250
     FM161300 06005KT P6SM SCT040
     FM161600 36010KT P6SM FEW040
     FM170200 09006KT P6SM FEW250=

USA.gov is the U.S. government's official web portal to all federal, state and local government web resources and services.